createdAt,value
2018-05-31T00:00:30.565Z,20.20
2018-05-31T00:02:59.063Z,20.10
2018-05-31T00:05:27.534Z,20.10
2018-05-31T00:07:55.215Z,20.10
2018-05-31T00:10:22.866Z,20.00
2018-05-31T00:12:50.574Z,19.90
2018-05-31T00:15:18.787Z,19.80
2018-05-31T00:17:47.242Z,19.50
2018-05-31T00:20:14.936Z,19.50
2018-05-31T00:22:43.381Z,19.40
2018-05-31T00:25:11.074Z,19.40
2018-05-31T00:27:38.758Z,19.30
2018-05-31T00:30:06.472Z,19.10
2018-05-31T00:32:34.169Z,19.00
2018-05-31T00:35:01.845Z,18.90
2018-05-31T00:37:29.558Z,18.90
2018-05-31T00:39:57.225Z,18.80
2018-05-31T00:42:25.706Z,18.60
2018-05-31T00:44:53.377Z,18.60
2018-05-31T00:47:21.064Z,18.60
2018-05-31T00:49:48.716Z,18.50
2018-05-31T00:52:16.429Z,18.40
2018-05-31T00:54:44.088Z,18.40
2018-05-31T00:57:12.748Z,18.30
2018-05-31T00:59:40.464Z,18.30
2018-05-31T01:02:08.139Z,18.20
2018-05-31T01:04:36.578Z,18.10
2018-05-31T01:07:04.308Z,18.10
2018-05-31T01:09:31.960Z,18.10
2018-05-31T01:11:59.675Z,18.10
2018-05-31T01:14:27.404Z,18.10
2018-05-31T01:16:55.054Z,18.00
2018-05-31T01:19:22.754Z,17.90
2018-05-31T01:21:50.429Z,17.90
2018-05-31T01:24:18.173Z,17.90
2018-05-31T01:26:45.836Z,17.80
2018-05-31T01:29:13.536Z,17.70
2018-05-31T01:31:41.211Z,17.60
2018-05-31T01:34:08.905Z,17.60
2018-05-31T01:36:36.567Z,17.50
2018-05-31T01:39:04.379Z,17.40
2018-05-31T01:41:32.416Z,17.30
2018-05-31T01:44:00.879Z,17.20
2018-05-31T01:46:28.572Z,17.10
2018-05-31T01:48:56.264Z,17.10
2018-05-31T01:51:23.951Z,17.10
2018-05-31T01:53:51.599Z,17.00
2018-05-31T01:56:19.304Z,17.00
2018-05-31T01:58:46.955Z,16.90
2018-05-31T02:01:14.653Z,16.90
2018-05-31T02:03:42.339Z,16.90
2018-05-31T02:06:10.040Z,16.90
2018-05-31T02:08:37.709Z,16.90
2018-05-31T02:11:06.180Z,16.90
2018-05-31T02:13:33.864Z,16.90
2018-05-31T02:16:01.553Z,17.00
2018-05-31T02:18:29.248Z,16.90
2018-05-31T02:20:56.919Z,16.90
2018-05-31T02:23:24.631Z,16.90
2018-05-31T02:25:52.319Z,16.90
2018-05-31T02:28:20.025Z,16.80
2018-05-31T02:30:47.684Z,16.80
2018-05-31T02:33:15.395Z,16.70
2018-05-31T02:35:43.071Z,16.70
2018-05-31T02:38:10.780Z,16.60
2018-05-31T02:40:38.431Z,16.60
2018-05-31T02:43:06.888Z,16.50
2018-05-31T02:45:34.559Z,16.50
2018-05-31T02:48:03.040Z,16.40
2018-05-31T02:50:31.464Z,16.50
2018-05-31T02:52:59.164Z,16.50
2018-05-31T02:55:26.832Z,16.50
2018-05-31T02:57:55.297Z,16.40
2018-05-31T03:00:22.966Z,16.40
2018-05-31T03:02:50.651Z,16.30
2018-05-31T03:05:19.116Z,16.30
2018-05-31T03:07:47.577Z,16.20
2018-05-31T03:10:15.263Z,16.30
2018-05-31T03:12:42.925Z,16.20
2018-05-31T03:15:11.391Z,16.30
2018-05-31T03:17:39.827Z,16.30
2018-05-31T03:20:07.543Z,16.30
2018-05-31T03:22:35.965Z,16.30
2018-05-31T03:25:03.727Z,16.30
2018-05-31T03:27:31.432Z,16.30
2018-05-31T03:29:59.866Z,16.20
2018-05-31T03:32:27.621Z,16.20
2018-05-31T03:34:55.288Z,16.20
2018-05-31T03:37:23.056Z,16.10
2018-05-31T03:39:50.708Z,16.20
2018-05-31T03:42:18.408Z,16.20
2018-05-31T03:44:46.857Z,16.10
2018-05-31T03:47:14.572Z,16.10
2018-05-31T03:49:43.023Z,16.10
2018-05-31T03:52:10.682Z,16.00
2018-05-31T03:54:38.362Z,16.00
2018-05-31T03:57:06.779Z,16.00
2018-05-31T03:59:34.464Z,16.00
2018-05-31T04:02:02.148Z,16.10
2018-05-31T04:04:29.858Z,16.10
2018-05-31T04:06:57.581Z,16.10
2018-05-31T04:09:25.274Z,16.20
2018-05-31T04:11:52.969Z,16.20
2018-05-31T04:14:20.633Z,16.30
2018-05-31T04:16:48.333Z,16.30
2018-05-31T04:19:16.821Z,16.30
2018-05-31T04:21:44.523Z,16.30
2018-05-31T04:24:12.261Z,16.30
2018-05-31T04:26:39.952Z,16.40
2018-05-31T04:29:07.617Z,16.40
2018-05-31T04:31:35.312Z,16.50
2018-05-31T04:34:02.963Z,16.50
2018-05-31T04:36:31.423Z,16.70
2018-05-31T04:38:59.132Z,16.70
2018-05-31T04:41:26.804Z,16.80
2018-05-31T04:43:54.502Z,16.90
2018-05-31T04:46:22.162Z,16.90
2018-05-31T04:48:49.849Z,17.10
2018-05-31T04:51:18.290Z,17.30
2018-05-31T04:53:45.983Z,17.30
2018-05-31T04:56:13.673Z,17.40
2018-05-31T04:58:41.351Z,17.50
2018-05-31T05:01:09.028Z,17.60
2018-05-31T05:03:36.715Z,17.70
2018-05-31T05:06:04.412Z,17.80
2018-05-31T05:08:32.096Z,17.90
2018-05-31T05:10:59.791Z,18.00
2018-05-31T05:13:27.451Z,18.10
2018-05-31T05:15:55.918Z,18.30
2018-05-31T05:18:23.603Z,18.30
2018-05-31T05:20:51.301Z,18.50
2018-05-31T05:23:18.955Z,18.60
2018-05-31T05:25:46.643Z,18.80
2018-05-31T05:28:14.312Z,19.10
2018-05-31T05:30:42.005Z,19.30
2018-05-31T05:33:09.837Z,19.50
2018-05-31T05:35:37.483Z,19.60
2018-05-31T05:38:05.173Z,19.80
2018-05-31T05:40:32.888Z,19.90
2018-05-31T05:43:00.557Z,20.10
2018-05-31T05:45:28.265Z,20.20
2018-05-31T05:47:55.932Z,20.50
2018-05-31T05:50:23.614Z,20.70
2018-05-31T05:52:52.089Z,21.20
2018-05-31T05:55:19.784Z,21.20
2018-05-31T05:57:47.463Z,21.50
2018-05-31T06:00:15.184Z,21.70
2018-05-31T06:02:43.633Z,22.10
2018-05-31T06:05:11.300Z,22.10
2018-05-31T06:07:39.021Z,22.40
2018-05-31T06:10:06.754Z,22.30
2018-05-31T06:12:34.416Z,22.20
2018-05-31T06:15:02.124Z,22.30
2018-05-31T06:17:29.783Z,22.60
2018-05-31T06:19:57.489Z,22.70
2018-05-31T06:22:25.169Z,22.90
2018-05-31T06:24:52.865Z,22.90
2018-05-31T06:27:20.532Z,22.80
2018-05-31T06:29:48.250Z,22.90
2018-05-31T06:32:15.912Z,23.00
2018-05-31T06:34:43.605Z,22.90
2018-05-31T06:37:12.103Z,23.30
2018-05-31T06:39:40.545Z,23.20
2018-05-31T06:42:08.332Z,23.30
2018-05-31T06:44:35.992Z,23.30
2018-05-31T06:47:03.695Z,23.40
2018-05-31T06:49:32.131Z,23.50
2018-05-31T06:51:59.837Z,23.40
2018-05-31T06:54:27.496Z,23.70
2018-05-31T06:56:55.947Z,23.80
2018-05-31T06:59:23.622Z,23.80
2018-05-31T07:01:51.281Z,23.90
2018-05-31T07:04:18.964Z,23.80
2018-05-31T07:06:47.386Z,23.70
2018-05-31T07:09:15.088Z,23.70
2018-05-31T07:11:42.742Z,23.80
2018-05-31T07:14:10.450Z,23.90
2018-05-31T07:16:38.109Z,23.80
2018-05-31T07:19:05.789Z,23.80
2018-05-31T07:21:33.468Z,23.80
2018-05-31T07:24:01.195Z,24.00
2018-05-31T07:26:28.900Z,24.20
2018-05-31T07:28:57.352Z,24.60
2018-05-31T07:31:25.051Z,24.60
2018-05-31T07:33:52.721Z,24.50
2018-05-31T07:36:21.231Z,24.60
2018-05-31T07:38:48.911Z,24.60
2018-05-31T07:41:16.588Z,24.60
2018-05-31T07:43:44.257Z,24.80
2018-05-31T07:46:11.966Z,24.80
2018-05-31T07:48:39.653Z,24.70
2018-05-31T07:51:07.336Z,24.80
2018-05-31T07:53:35.041Z,24.90
2018-05-31T07:56:02.691Z,25.20
2018-05-31T07:58:31.146Z,25.10
2018-05-31T08:00:58.810Z,25.10
2018-05-31T08:03:26.516Z,25.10
2018-05-31T08:05:54.225Z,25.10
2018-05-31T08:08:21.917Z,25.30
2018-05-31T08:10:50.721Z,25.50
2018-05-31T08:13:18.440Z,25.50
2018-05-31T08:15:46.138Z,25.70
2018-05-31T08:18:13.875Z,25.80
2018-05-31T08:20:42.340Z,25.80
2018-05-31T08:23:10.026Z,25.80
2018-05-31T08:25:38.464Z,25.80
2018-05-31T08:28:06.150Z,25.80
2018-05-31T08:30:33.842Z,25.90
2018-05-31T08:33:01.500Z,25.90
2018-05-31T08:35:29.181Z,26.00
2018-05-31T08:37:56.857Z,26.10
2018-05-31T08:40:24.646Z,26.00
2018-05-31T08:42:52.308Z,26.10
2018-05-31T08:45:20.008Z,26.20
2018-05-31T08:47:47.693Z,26.50
2018-05-31T08:50:15.383Z,26.40
2018-05-31T08:52:43.628Z,26.60
2018-05-31T08:55:11.358Z,26.60
2018-05-31T08:57:39.033Z,26.50
2018-05-31T09:00:06.779Z,26.50
2018-05-31T09:02:34.439Z,26.50
2018-05-31T09:05:02.120Z,26.60
2018-05-31T09:07:29.832Z,26.60
2018-05-31T09:09:57.498Z,26.60
2018-05-31T09:12:25.942Z,26.90
2018-05-31T09:14:53.578Z,26.90
2018-05-31T09:17:21.266Z,26.90
2018-05-31T09:19:48.920Z,26.90
2018-05-31T09:22:16.617Z,27.10
2018-05-31T09:24:45.033Z,27.60
2018-05-31T09:27:12.723Z,27.50
2018-05-31T09:29:40.387Z,27.80
2018-05-31T09:32:08.067Z,27.70
2018-05-31T09:34:35.710Z,27.60
2018-05-31T09:37:03.426Z,27.60
2018-05-31T09:39:31.115Z,27.60
2018-05-31T09:41:58.767Z,27.60
2018-05-31T09:44:26.443Z,27.20
2018-05-31T09:46:54.084Z,27.00
2018-05-31T09:49:21.770Z,26.90
2018-05-31T09:51:50.222Z,26.60
2018-05-31T09:54:18.674Z,26.70
2018-05-31T09:56:46.327Z,26.70
2018-05-31T09:59:14.766Z,26.50
2018-05-31T10:01:42.432Z,26.50
2018-05-31T10:04:10.128Z,26.60
2018-05-31T10:06:38.572Z,26.60
2018-05-31T10:09:06.255Z,26.50
2018-05-31T10:11:34.679Z,26.70
2018-05-31T10:14:02.391Z,26.60
2018-05-31T10:16:30.048Z,26.80
2018-05-31T10:18:57.724Z,26.90
2018-05-31T10:21:26.173Z,27.10
2018-05-31T10:23:53.843Z,27.10
2018-05-31T10:26:21.507Z,27.20
2018-05-31T10:28:49.192Z,27.20
2018-05-31T10:31:16.876Z,27.00
2018-05-31T10:33:44.545Z,27.00
2018-05-31T10:36:12.199Z,27.00
2018-05-31T10:38:40.248Z,26.90
2018-05-31T10:41:07.913Z,26.80
2018-05-31T10:43:35.632Z,26.90
2018-05-31T10:46:03.310Z,26.90
2018-05-31T10:48:31.774Z,26.90
2018-05-31T10:50:59.424Z,26.90
2018-05-31T10:53:27.080Z,26.90
2018-05-31T10:55:54.788Z,26.80
2018-05-31T10:58:22.438Z,26.60
2018-05-31T11:00:50.173Z,26.60
2018-05-31T11:03:17.821Z,26.70
2018-05-31T11:05:45.495Z,26.90
2018-05-31T11:08:13.156Z,27.00
2018-05-31T11:10:40.815Z,26.90
2018-05-31T11:13:08.457Z,27.00
2018-05-31T11:15:36.135Z,27.10
2018-05-31T11:18:03.852Z,27.20
2018-05-31T11:20:31.564Z,27.20
2018-05-31T11:22:59.262Z,27.30
2018-05-31T11:25:26.907Z,27.30
2018-05-31T11:27:54.638Z,27.20
2018-05-31T11:30:22.291Z,27.20
2018-05-31T11:32:49.980Z,27.30
2018-05-31T11:35:18.413Z,27.40
2018-05-31T11:37:47.018Z,27.40
2018-05-31T11:40:14.660Z,27.50
2018-05-31T11:42:42.354Z,27.50
2018-05-31T11:45:10.776Z,27.40
2018-05-31T11:47:38.450Z,27.40
2018-05-31T11:50:06.180Z,27.50
2018-05-31T11:52:33.824Z,27.60
2018-05-31T11:55:02.272Z,27.70
2018-05-31T11:57:29.927Z,27.70
2018-05-31T11:59:57.617Z,27.80
2018-05-31T12:02:26.036Z,27.90
2018-05-31T12:04:53.722Z,27.80
2018-05-31T12:07:21.376Z,27.70
2018-05-31T12:09:49.058Z,27.70
2018-05-31T12:12:16.815Z,27.70
2018-05-31T12:14:44.459Z,27.60
2018-05-31T12:17:12.142Z,27.70
2018-05-31T12:19:39.789Z,27.80
2018-05-31T12:22:07.468Z,27.80
2018-05-31T12:24:35.139Z,27.80
2018-05-31T12:27:03.587Z,27.90
2018-05-31T12:29:31.261Z,27.90
2018-05-31T12:31:58.948Z,27.90
2018-05-31T12:34:26.588Z,28.00
2018-05-31T12:36:54.264Z,28.00
2018-05-31T12:39:22.664Z,28.00
2018-05-31T12:41:50.347Z,28.00
2018-05-31T12:44:18.010Z,28.00
2018-05-31T12:46:45.699Z,28.00
2018-05-31T12:49:13.347Z,28.00
2018-05-31T12:51:41.039Z,27.90
2018-05-31T12:54:09.444Z,28.00
2018-05-31T12:56:37.123Z,28.00
2018-05-31T12:59:04.825Z,28.10
2018-05-31T13:01:32.521Z,28.00
2018-05-31T13:04:00.162Z,27.90
2018-05-31T13:06:27.833Z,27.80
2018-05-31T13:08:55.474Z,27.80
2018-05-31T13:11:23.956Z,28.00
2018-05-31T13:13:52.425Z,28.10
2018-05-31T13:16:20.124Z,28.10
2018-05-31T13:18:47.824Z,28.10
2018-05-31T13:21:15.483Z,28.20
2018-05-31T13:23:43.160Z,28.10
2018-05-31T13:26:10.820Z,27.80
2018-05-31T13:28:38.518Z,27.60
2018-05-31T13:31:06.285Z,27.50
2018-05-31T13:33:33.984Z,27.40
2018-05-31T13:36:04.690Z,27.30
2018-05-31T13:38:32.367Z,27.20
2018-05-31T13:41:00.017Z,27.10
2018-05-31T13:43:27.690Z,26.90
2018-05-31T13:45:55.347Z,26.90
2018-05-31T13:48:23.040Z,26.80
2018-05-31T13:50:50.683Z,26.60
2018-05-31T13:53:18.376Z,26.50
2018-05-31T13:55:46.783Z,26.50
2018-05-31T13:58:14.477Z,26.50
2018-05-31T14:00:42.157Z,26.50
2018-05-31T14:03:09.813Z,26.70
2018-05-31T14:05:37.522Z,26.80
2018-05-31T14:08:05.183Z,26.90
2018-05-31T14:10:32.878Z,27.00
2018-05-31T14:13:00.528Z,27.00
2018-05-31T14:15:28.199Z,27.00
2018-05-31T14:17:55.874Z,27.00
2018-05-31T14:20:23.560Z,27.00
2018-05-31T14:22:51.999Z,26.80
2018-05-31T14:25:19.691Z,26.80
2018-05-31T14:27:48.092Z,26.80
2018-05-31T14:30:15.773Z,26.70
2018-05-31T14:32:43.475Z,26.70
2018-05-31T14:35:11.129Z,26.80
2018-05-31T14:37:38.810Z,26.90
2018-05-31T14:40:07.225Z,26.90
2018-05-31T14:42:34.925Z,26.90
2018-05-31T14:45:02.613Z,26.90
2018-05-31T14:47:31.054Z,27.10
2018-05-31T14:49:58.707Z,27.10
2018-05-31T14:52:26.390Z,27.20
2018-05-31T14:54:54.040Z,27.40
2018-05-31T14:57:21.726Z,27.50
2018-05-31T14:59:49.449Z,27.50
2018-05-31T15:02:17.118Z,27.50
2018-05-31T15:04:44.799Z,27.60
2018-05-31T15:07:12.446Z,27.60
2018-05-31T15:09:40.123Z,27.60
2018-05-31T15:12:07.781Z,27.70
2018-05-31T15:14:35.498Z,27.70
2018-05-31T15:17:03.915Z,27.50
2018-05-31T15:19:31.589Z,27.50
2018-05-31T15:21:59.236Z,27.40
2018-05-31T15:24:26.922Z,27.30
2018-05-31T15:26:55.364Z,27.10
2018-05-31T15:29:23.005Z,27.00
2018-05-31T15:31:50.711Z,27.00
2018-05-31T15:34:19.114Z,26.90
2018-05-31T15:36:46.836Z,26.90
2018-05-31T15:39:14.491Z,26.80
2018-05-31T15:41:42.195Z,26.80
2018-05-31T15:44:09.846Z,26.70
2018-05-31T15:46:37.545Z,26.70
2018-05-31T15:49:05.249Z,26.70
2018-05-31T15:51:34.177Z,26.60
2018-05-31T15:54:01.903Z,26.60
2018-05-31T15:56:30.355Z,26.50
2018-05-31T15:58:58.027Z,26.50
2018-05-31T16:01:25.660Z,26.40
2018-05-31T16:03:53.346Z,26.30
2018-05-31T16:06:21.024Z,26.30
2018-05-31T16:08:49.478Z,26.20
2018-05-31T16:11:17.124Z,26.20
2018-05-31T16:13:44.810Z,26.10
2018-05-31T16:16:12.455Z,26.00
2018-05-31T16:18:40.131Z,26.00
2018-05-31T16:21:07.788Z,25.90
2018-05-31T16:23:35.492Z,25.90
2018-05-31T16:26:03.209Z,25.80
2018-05-31T16:28:30.873Z,25.50
2018-05-31T16:30:59.343Z,25.00
2018-05-31T16:33:26.980Z,25.00
2018-05-31T16:35:54.657Z,24.70
2018-05-31T16:38:22.316Z,24.40
2018-05-31T16:40:50.040Z,24.20
2018-05-31T16:43:17.689Z,24.10
2018-05-31T16:45:45.459Z,24.00
2018-05-31T16:48:13.111Z,23.80
2018-05-31T16:50:40.808Z,23.60
2018-05-31T16:53:08.472Z,23.50
2018-05-31T16:55:36.159Z,23.30
2018-05-31T16:58:03.873Z,22.60
2018-05-31T17:00:31.520Z,21.60
2018-05-31T17:02:59.205Z,20.80
2018-05-31T17:05:26.907Z,20.00
2018-05-31T17:07:55.359Z,19.00
2018-05-31T17:10:23.017Z,19.00
2018-05-31T17:12:50.700Z,18.70
2018-05-31T17:15:19.128Z,18.30
2018-05-31T17:17:46.825Z,18.30
2018-05-31T17:20:14.481Z,18.60
2018-05-31T17:22:42.155Z,18.60
2018-05-31T17:25:09.846Z,18.60
2018-05-31T17:27:37.512Z,18.40
2018-05-31T17:30:05.267Z,18.30
2018-05-31T17:32:32.907Z,18.20
2018-05-31T17:35:00.612Z,18.10
2018-05-31T17:37:29.040Z,18.00
2018-05-31T17:39:56.715Z,18.00
2018-05-31T17:42:25.151Z,17.80
2018-05-31T17:44:52.845Z,17.80
2018-05-31T17:47:21.313Z,17.70
2018-05-31T17:49:49.007Z,17.60
2018-05-31T17:52:16.692Z,17.70
2018-05-31T17:54:44.437Z,17.60
2018-05-31T17:57:12.166Z,17.60
2018-05-31T17:59:40.818Z,17.60
2018-05-31T18:02:09.718Z,17.60
2018-05-31T18:04:37.509Z,17.70
2018-05-31T18:07:06.016Z,17.80
2018-05-31T18:09:34.332Z,17.80
2018-05-31T18:12:02.144Z,17.80
2018-05-31T18:14:29.934Z,17.90
2018-05-31T18:16:57.911Z,17.80
2018-05-31T18:19:25.766Z,17.50
2018-05-31T18:21:53.735Z,17.10
2018-05-31T18:24:21.422Z,16.70
2018-05-31T18:26:49.074Z,16.30
2018-05-31T18:29:16.767Z,16.20
2018-05-31T18:31:45.210Z,15.90
2018-05-31T18:34:12.875Z,15.90
2018-05-31T18:36:40.544Z,15.90
2018-05-31T18:39:08.200Z,15.70
2018-05-31T18:41:35.878Z,15.80
2018-05-31T18:44:03.530Z,15.80
2018-05-31T18:46:31.204Z,15.80
2018-05-31T18:48:59.627Z,15.90
2018-05-31T18:51:27.298Z,15.90
2018-05-31T18:53:54.940Z,15.90
2018-05-31T18:56:22.640Z,16.00
2018-05-31T18:58:50.340Z,16.00
2018-05-31T19:01:18.034Z,16.00
2018-05-31T19:03:45.706Z,16.10
2018-05-31T19:06:13.379Z,16.10
2018-05-31T19:08:41.045Z,16.20
2018-05-31T19:11:08.711Z,16.10
2018-05-31T19:13:42.106Z,16.10
2018-05-31T19:16:09.748Z,16.10
2018-05-31T19:18:43.869Z,16.00
2018-05-31T19:21:11.519Z,16.00
2018-05-31T19:23:39.217Z,16.00
2018-05-31T19:26:07.647Z,16.00
2018-05-31T19:28:35.335Z,16.00
2018-05-31T19:31:08.578Z,16.00
2018-05-31T19:33:36.269Z,16.00
2018-05-31T19:36:09.633Z,16.10
2018-05-31T19:38:37.348Z,16.20
2018-05-31T19:41:05.038Z,16.30
2018-05-31T19:43:38.428Z,16.40
2018-05-31T19:46:06.847Z,16.50
2018-05-31T19:48:34.585Z,16.50
2018-05-31T19:51:02.234Z,16.50
2018-05-31T19:53:35.528Z,16.50
2018-05-31T19:56:03.194Z,16.50
2018-05-31T19:58:36.623Z,16.60
2018-05-31T20:01:09.927Z,16.60
2018-05-31T20:03:37.609Z,16.50
2018-05-31T20:06:05.264Z,16.40
2018-05-31T20:08:32.970Z,16.40
2018-05-31T20:11:00.614Z,16.40
2018-05-31T20:13:28.306Z,16.30
2018-05-31T20:15:55.943Z,16.30
2018-05-31T20:18:23.648Z,16.40
2018-05-31T20:20:51.351Z,16.40
2018-05-31T20:23:19.054Z,16.40
2018-05-31T20:25:46.731Z,16.40
2018-05-31T20:28:14.593Z,16.30
2018-05-31T20:30:42.586Z,16.30
2018-05-31T20:33:10.489Z,16.20
2018-05-31T20:35:38.217Z,16.20
2018-05-31T20:38:06.940Z,16.20
2018-05-31T20:40:35.032Z,16.20
2018-05-31T20:43:04.002Z,16.20
2018-05-31T20:45:32.052Z,16.20
2018-05-31T20:48:00.118Z,16.10
2018-05-31T20:50:28.198Z,16.10
2018-05-31T20:52:56.184Z,16.00
2018-05-31T20:55:24.158Z,16.00
2018-05-31T20:57:52.112Z,16.00
2018-05-31T21:00:20.137Z,15.90
2018-05-31T21:02:48.261Z,15.90
2018-05-31T21:05:15.986Z,15.90
2018-05-31T21:07:43.879Z,15.90
2018-05-31T21:10:11.775Z,16.00
2018-05-31T21:12:39.675Z,16.00
2018-05-31T21:15:08.238Z,16.00
2018-05-31T21:17:36.051Z,16.00
2018-05-31T21:20:03.853Z,16.00
2018-05-31T21:22:31.607Z,16.10
2018-05-31T21:24:59.267Z,16.20
2018-05-31T21:27:27.170Z,16.20
2018-05-31T21:29:55.784Z,16.30
2018-05-31T21:32:24.193Z,16.30
2018-05-31T21:34:52.032Z,16.20
2018-05-31T21:37:19.967Z,16.30
2018-05-31T21:39:48.495Z,16.30
2018-05-31T21:42:16.169Z,16.30
2018-05-31T21:44:44.473Z,16.30
2018-05-31T21:47:12.178Z,16.30
2018-05-31T21:49:39.860Z,16.30
2018-05-31T21:52:07.669Z,16.30
2018-05-31T21:54:35.808Z,16.30
2018-05-31T21:57:03.758Z,16.30
2018-05-31T21:59:31.773Z,16.30
2018-05-31T22:02:00.467Z,16.30
2018-05-31T22:04:28.372Z,16.30
2018-05-31T22:06:56.214Z,16.30
2018-05-31T22:09:23.938Z,16.30
2018-05-31T22:11:52.604Z,16.20
2018-05-31T22:14:20.501Z,16.20
2018-05-31T22:16:48.256Z,16.20
2018-05-31T22:19:15.991Z,16.20
2018-05-31T22:21:43.675Z,16.20
2018-05-31T22:24:12.367Z,16.20
2018-05-31T22:26:40.487Z,16.10
2018-05-31T22:29:08.206Z,16.10
2018-05-31T22:31:35.872Z,16.10
2018-05-31T22:34:03.741Z,16.10
2018-05-31T22:36:31.665Z,16.00
2018-05-31T22:38:59.569Z,16.00
2018-05-31T22:41:27.345Z,16.00
2018-05-31T22:43:55.235Z,16.00
2018-05-31T22:46:23.232Z,16.00
2018-05-31T22:48:51.891Z,15.90
2018-05-31T22:51:19.898Z,15.90
2018-05-31T22:53:48.667Z,16.00
2018-05-31T22:56:17.275Z,16.10
2018-05-31T22:58:45.864Z,16.10
2018-05-31T23:01:13.744Z,16.10
2018-05-31T23:03:41.639Z,16.10
2018-05-31T23:06:09.471Z,16.10
2018-05-31T23:08:42.159Z,16.10
2018-05-31T23:11:09.841Z,16.20
2018-05-31T23:13:37.545Z,16.30
2018-05-31T23:16:05.319Z,16.20
2018-05-31T23:18:33.010Z,16.30
2018-05-31T23:21:00.794Z,16.30
2018-05-31T23:23:28.628Z,16.20
2018-05-31T23:25:56.508Z,16.20
2018-05-31T23:28:24.524Z,16.20
2018-05-31T23:30:53.031Z,16.20
2018-05-31T23:33:22.539Z,16.20
2018-05-31T23:35:50.423Z,16.20
2018-05-31T23:38:18.317Z,16.20
2018-05-31T23:40:46.199Z,16.20
2018-05-31T23:43:14.283Z,16.20
2018-05-31T23:45:42.168Z,16.20
2018-05-31T23:48:10.211Z,16.20
2018-05-31T23:50:37.902Z,16.20
2018-05-31T23:53:05.578Z,16.20
2018-05-31T23:55:33.260Z,16.20
2018-05-31T23:58:00.980Z,16.30
